Time;durP1;ratioP1;P1;durP2;ratioP2;P2;SDS_P1;SDS_P2;PMS_P1;PMS_P2;Temp;Humidity;BMP_temperature;BMP_pressure;BME280_temperature;BME280_humidity;BME280_pressure;Samples;Min_cycle;Max_cycle;Signal;HPM_P1;HPM_P2
2021/07/16 00:01:30;;;;;;;38.97;27.40;;;;;;;;;;5010730;28;20265;-57
2021/07/16 00:03:55;;;;;;;41.47;29.33;;;;;;;;;;5011534;28;20418;-57
2021/07/16 00:06:20;;;;;;;38.40;27.57;;;;;;;;;;5008367;28;20252;-57
2021/07/16 00:08:45;;;;;;;39.58;29.15;;;;;;;;;;5011304;28;20469;-57
2021/07/16 00:11:11;;;;;;;46.43;30.83;;;;;;;;;;5010360;28;20183;-56
2021/07/16 00:13:37;;;;;;;49.88;31.48;;;;;;;;;;5010828;28;20927;-58
2021/07/16 00:16:03;;;;;;;47.30;33.97;;;;;;;;;;5011462;28;20262;-57
2021/07/16 00:18:28;;;;;;;50.83;36.67;;;;;;;;;;5011142;28;20341;-57
2021/07/16 00:20:53;;;;;;;51.53;34.77;;;;;;;;;;5010949;28;20705;-57
2021/07/16 00:23:18;;;;;;;51.07;36.03;;;;;;;;;;4993017;28;20612;-57
2021/07/16 00:25:43;;;;;;;58.85;39.92;;;;;;;;;;5009283;28;20502;-57
2021/07/16 00:28:08;;;;;;;56.97;39.42;;;;;;;;;;5010375;28;20211;-58
2021/07/16 00:30:34;;;;;;;62.25;41.50;;;;;;;;;;5010612;28;20585;-57
2021/07/16 00:32:59;;;;;;;59.20;41.30;;;;;;;;;;5010388;28;20587;-57
2021/07/16 00:35:25;;;;;;;65.95;43.60;;;;;;;;;;5009914;28;20233;-57
2021/07/16 00:37:50;;;;;;;68.50;43.25;;;;;;;;;;5008820;28;20266;-57
2021/07/16 00:40:16;;;;;;;71.73;45.63;;;;;;;;;;5010450;28;20187;-57
2021/07/16 00:42:41;;;;;;;74.35;45.75;;;;;;;;;;5010554;28;20529;-56
2021/07/16 00:45:07;;;;;;;73.30;44.83;;;;;;;;;;5010666;28;20707;-57
2021/07/16 00:47:33;;;;;;;74.68;44.47;;;;;;;;;;5010969;28;20640;-57
2021/07/16 00:49:58;;;;;;;65.73;43.40;;;;;;;;;;5010293;28;20187;-56
2021/07/16 00:52:23;;;;;;;79.55;44.42;;;;;;;;;;5009287;28;20746;-56
2021/07/16 00:54:49;;;;;;;72.90;43.30;;;;;;;;;;5009820;28;20169;-57
2021/07/16 00:57:14;;;;;;;67.93;43.53;;;;;;;;;;5010860;28;20262;-57
2021/07/16 00:59:40;;;;;;;67.73;41.47;;;;;;;;;;5010783;28;20167;-56
2021/07/16 01:02:05;;;;;;;66.68;40.90;;;;;;;;;;5010057;28;20487;-57
2021/07/16 01:04:30;;;;;;;62.70;41.30;;;;;;;;;;5010253;28;20168;-56
2021/07/16 01:06:55;;;;;;;55.15;37.45;;;;;;;;;;4992565;28;20194;-57
2021/07/16 01:09:20;;;;;;;58.20;38.20;;;;;;;;;;5004559;28;20203;-56
2021/07/16 01:11:46;;;;;;;60.70;39.45;;;;;;;;;;5008871;28;20199;-56
2021/07/16 01:14:12;;;;;;;64.50;39.67;;;;;;;;;;5009006;28;20182;-56
2021/07/16 01:16:37;;;;;;;62.90;38.17;;;;;;;;;;5009095;28;20176;-57
2021/07/16 01:19:03;;;;;;;60.13;36.97;;;;;;;;;;5005438;28;20175;-57
2021/07/16 01:21:31;;;;;;;59.83;37.10;;;;;;;;;;5010067;28;20675;-58
2021/07/16 01:23:56;;;;;;;60.28;36.85;;;;;;;;;;5005599;28;20648;-57
2021/07/16 01:26:21;;;;;;;62.45;37.20;;;;;;;;;;5007509;28;20201;-58
2021/07/16 01:28:47;;;;;;;58.22;36.47;;;;;;;;;;5009270;28;20199;-56
2021/07/16 01:31:12;;;;;;;57.78;35.65;;;;;;;;;;5008612;28;20202;-57
2021/07/16 01:33:37;;;;;;;56.50;35.92;;;;;;;;;;5008890;28;20211;-56
2021/07/16 01:36:02;;;;;;;57.42;35.80;;;;;;;;;;4995070;28;20578;-57
2021/07/16 01:38:28;;;;;;;56.78;34.95;;;;;;;;;;5005732;28;20823;-56
2021/07/16 01:40:54;;;;;;;55.45;34.95;;;;;;;;;;5008697;28;20640;-56
2021/07/16 01:43:19;;;;;;;51.92;33.45;;;;;;;;;;5008982;28;20254;-57
2021/07/16 01:45:44;;;;;;;47.75;31.25;;;;;;;;;;5009383;28;20229;-57
2021/07/16 01:48:11;;;;;;;44.60;30.42;;;;;;;;;;4992395;28;20210;-57
2021/07/16 01:50:36;;;;;;;46.00;29.75;;;;;;;;;;4991799;28;20257;-58
2021/07/16 01:53:03;;;;;;;41.53;27.70;;;;;;;;;;5008347;28;20683;-56
2021/07/16 01:55:29;;;;;;;39.17;27.80;;;;;;;;;;5003985;28;20175;-57
2021/07/16 01:57:56;;;;;;;37.22;26.30;;;;;;;;;;5012969;28;20206;-57
2021/07/16 02:00:26;;;;;;;36.40;26.17;;;;;;;;;;5012995;28;20179;-56
2021/07/16 02:02:52;;;;;;;36.58;27.52;;;;;;;;;;5013300;28;20187;-57
2021/07/16 02:05:18;;;;;;;37.60;25.83;;;;;;;;;;5011723;28;20266;-56
2021/07/16 02:07:44;;;;;;;35.28;27.27;;;;;;;;;;5010857;28;20289;-56
2021/07/16 02:10:09;;;;;;;39.55;25.85;;;;;;;;;;5012760;28;20174;-56
2021/07/16 02:12:34;;;;;;;39.33;26.48;;;;;;;;;;5012690;28;20199;-57
2021/07/16 02:14:59;;;;;;;36.05;26.33;;;;;;;;;;5012934;28;20580;-56
2021/07/16 02:17:25;;;;;;;37.20;23.50;;;;;;;;;;5013441;28;20179;-57
2021/07/16 02:19:50;;;;;;;31.73;23.70;;;;;;;;;;4989971;28;20820;-57
2021/07/16 02:22:15;;;;;;;29.23;22.37;;;;;;;;;;5010253;28;20199;-58
2021/07/16 02:24:40;;;;;;;33.72;23.00;;;;;;;;;;5012075;28;20804;-56
2021/07/16 02:27:05;;;;;;;28.60;21.03;;;;;;;;;;5012242;28;20202;-56
2021/07/16 02:29:32;;;;;;;28.05;20.80;;;;;;;;;;5012341;28;20465;-57
2021/07/16 02:31:58;;;;;;;29.88;20.33;;;;;;;;;;5011795;28;20417;-57
2021/07/16 02:34:23;;;;;;;24.02;19.27;;;;;;;;;;5013090;28;20175;-57
2021/07/16 02:36:49;;;;;;;23.30;17.40;;;;;;;;;;5012701;28;20199;-56
2021/07/16 02:39:14;;;;;;;23.88;18.73;;;;;;;;;;5011575;28;20598;-56
2021/07/16 02:41:39;;;;;;;27.65;20.67;;;;;;;;;;5013104;28;20281;-57
2021/07/16 02:44:05;;;;;;;25.92;19.67;;;;;;;;;;5012872;28;20184;-56
2021/07/16 02:46:30;;;;;;;23.67;20.05;;;;;;;;;;4995441;28;20275;-56
2021/07/16 02:48:55;;;;;;;24.58;20.08;;;;;;;;;;5012555;28;20289;-57
2021/07/16 02:51:20;;;;;;;24.38;19.10;;;;;;;;;;5012751;28;20654;-56
2021/07/16 02:53:46;;;;;;;24.90;19.40;;;;;;;;;;5011339;28;20180;-57
2021/07/16 02:56:11;;;;;;;27.65;21.10;;;;;;;;;;5009842;28;20171;-57
2021/07/16 02:58:36;;;;;;;26.60;20.45;;;;;;;;;;5012477;28;20195;-57
2021/07/16 03:01:01;;;;;;;31.30;21.73;;;;;;;;;;5011032;28;20241;-57
2021/07/16 03:03:26;;;;;;;29.33;21.90;;;;;;;;;;5011845;28;20422;-56
2021/07/16 03:05:52;;;;;;;32.08;22.05;;;;;;;;;;5010200;28;20180;-57
2021/07/16 03:08:17;;;;;;;30.67;21.38;;;;;;;;;;5010922;28;20361;-56
2021/07/16 03:10:44;;;;;;;27.27;20.75;;;;;;;;;;5011413;28;20273;-57
2021/07/16 03:13:10;;;;;;;30.65;20.58;;;;;;;;;;5012432;28;20230;-57
2021/07/16 03:15:36;;;;;;;25.95;19.55;;;;;;;;;;4994387;28;20171;-57
2021/07/16 03:18:02;;;;;;;25.08;20.00;;;;;;;;;;5012532;28;20179;-56
2021/07/16 03:20:29;;;;;;;29.45;19.98;;;;;;;;;;5011858;28;20176;-57
2021/07/16 03:22:54;;;;;;;27.67;20.25;;;;;;;;;;5010673;28;20214;-57
2021/07/16 03:25:20;;;;;;;27.83;18.85;;;;;;;;;;5011896;28;20647;-56
2021/07/16 03:27:46;;;;;;;24.85;18.17;;;;;;;;;;5012164;28;20203;-56
2021/07/16 03:30:13;;;;;;;22.15;17.63;;;;;;;;;;5012176;28;20167;-57
2021/07/16 03:32:38;;;;;;;25.58;19.98;;;;;;;;;;4994522;28;20257;-56
2021/07/16 03:35:05;;;;;;;28.90;20.33;;;;;;;;;;5011568;28;20163;-57
2021/07/16 03:37:30;;;;;;;30.65;20.80;;;;;;;;;;5008624;28;20611;-56
2021/07/16 03:39:56;;;;;;;33.88;21.80;;;;;;;;;;5007559;28;20180;-56
2021/07/16 03:42:21;;;;;;;29.02;21.27;;;;;;;;;;4998791;28;20286;-56
2021/07/16 03:44:46;;;;;;;28.45;20.40;;;;;;;;;;5011208;28;20168;-56
2021/07/16 03:47:13;;;;;;;33.58;20.80;;;;;;;;;;5004478;28;20179;-56
2021/07/16 03:49:38;;;;;;;26.50;19.13;;;;;;;;;;5008656;28;20257;-56
2021/07/16 03:52:04;;;;;;;30.90;18.88;;;;;;;;;;5008755;28;20193;-57
2021/07/16 03:54:29;;;;;;;27.23;19.85;;;;;;;;;;5009414;28;20263;-57
2021/07/16 03:56:54;;;;;;;25.42;18.38;;;;;;;;;;5010056;28;20213;-56
2021/07/16 03:59:19;;;;;;;26.30;18.10;;;;;;;;;;5001238;28;20270;-57
2021/07/16 04:01:47;;;;;;;25.15;17.88;;;;;;;;;;5009889;28;20454;-56
2021/07/16 04:04:12;;;;;;;26.13;17.50;;;;;;;;;;5009267;28;20175;-56
2021/07/16 04:06:37;;;;;;;26.73;17.85;;;;;;;;;;5009075;28;20199;-56
2021/07/16 04:12:09;;;;;;;20.58;15.65;;;;;;;;;;4892008;29;20223;-56
2021/07/16 04:14:35;;;;;;;21.77;15.88;;;;;;;;;;4893153;29;20191;-56
2021/07/16 04:17:00;;;;;;;20.85;15.32;;;;;;;;;;4948275;28;20214;-57
2021/07/16 04:19:25;;;;;;;25.92;15.60;;;;;;;;;;4993402;28;20233;-58
2021/07/16 04:21:50;;;;;;;23.52;15.57;;;;;;;;;;5009277;28;20242;-57
2021/07/16 04:24:16;;;;;;;17.67;14.13;;;;;;;;;;5008954;28;20179;-57
2021/07/16 04:26:41;;;;;;;22.73;14.53;;;;;;;;;;5008835;28;20418;-57
2021/07/16 04:29:06;;;;;;;17.98;14.77;;;;;;;;;;5011156;28;20469;-57
2021/07/16 04:31:31;;;;;;;22.10;14.23;;;;;;;;;;5009776;28;20258;-57
2021/07/16 04:33:56;;;;;;;21.10;14.82;;;;;;;;;;5011095;28;20418;-56
2021/07/16 04:36:21;;;;;;;19.05;13.73;;;;;;;;;;5010957;28;20910;-56
2021/07/16 04:38:47;;;;;;;20.63;15.27;;;;;;;;;;5007832;28;20195;-57
2021/07/16 04:41:12;;;;;;;23.08;15.63;;;;;;;;;;5010451;28;20407;-56
2021/07/16 04:43:37;;;;;;;22.30;16.73;;;;;;;;;;5009519;28;20686;-56
2021/07/16 04:46:02;;;;;;;21.58;16.55;;;;;;;;;;5010620;28;20282;-57
2021/07/16 04:48:27;;;;;;;25.48;18.00;;;;;;;;;;5010775;28;20379;-57
2021/07/16 04:50:52;;;;;;;28.15;19.15;;;;;;;;;;4992493;28;20186;-57
2021/07/16 04:53:18;;;;;;;28.98;18.05;;;;;;;;;;4991105;28;20741;-57
2021/07/16 04:55:43;;;;;;;28.08;19.13;;;;;;;;;;5008243;28;20183;-57
2021/07/16 04:58:08;;;;;;;22.07;15.93;;;;;;;;;;4993012;28;20183;-57
2021/07/16 05:00:33;;;;;;;20.65;15.18;;;;;;;;;;5010669;28;20407;-57
2021/07/16 05:02:59;;;;;;;20.83;14.00;;;;;;;;;;5010163;28;20202;-57
2021/07/16 05:05:24;;;;;;;21.90;15.98;;;;;;;;;;5010154;28;20186;-56
2021/07/16 05:07:49;;;;;;;22.48;15.00;;;;;;;;;;5010052;28;20210;-56
2021/07/16 05:10:14;;;;;;;21.58;15.75;;;;;;;;;;5008677;28;20617;-57
2021/07/16 05:12:40;;;;;;;24.58;14.65;;;;;;;;;;5010035;28;20675;-57
2021/07/16 05:15:06;;;;;;;19.77;13.98;;;;;;;;;;5009767;28;20233;-57
2021/07/16 05:17:31;;;;;;;19.63;14.48;;;;;;;;;;5010106;28;20203;-56
2021/07/16 05:19:57;;;;;;;15.48;13.25;;;;;;;;;;5010363;28;20778;-56
2021/07/16 05:22:22;;;;;;;18.13;13.75;;;;;;;;;;5009891;28;20257;-57
2021/07/16 05:24:47;;;;;;;18.38;13.50;;;;;;;;;;5008392;28;20742;-56
2021/07/16 05:27:12;;;;;;;18.27;13.43;;;;;;;;;;4992027;28;20190;-56
2021/07/16 05:29:37;;;;;;;15.10;12.65;;;;;;;;;;5009570;28;20209;-57
2021/07/16 05:32:03;;;;;;;16.63;12.43;;;;;;;;;;5010074;28;20219;-57
2021/07/16 05:34:28;;;;;;;14.00;12.00;;;;;;;;;;5010227;28;20188;-57
2021/07/16 05:36:53;;;;;;;14.25;11.98;;;;;;;;;;5008646;28;20171;-57
2021/07/16 05:39:18;;;;;;;12.77;11.23;;;;;;;;;;5007346;28;20194;-56
2021/07/16 05:41:43;;;;;;;15.73;12.20;;;;;;;;;;5009875;28;20223;-56
2021/07/16 05:44:09;;;;;;;19.20;13.95;;;;;;;;;;5009556;28;20515;-57
2021/07/16 05:46:34;;;;;;;20.37;14.43;;;;;;;;;;4992365;28;20337;-56
2021/07/16 05:48:59;;;;;;;25.23;16.38;;;;;;;;;;4992527;28;20465;-57
2021/07/16 05:51:24;;;;;;;21.42;15.73;;;;;;;;;;5009174;28;20186;-57
2021/07/16 05:53:49;;;;;;;20.08;15.88;;;;;;;;;;5008838;28;20734;-56
2021/07/16 05:56:15;;;;;;;21.00;16.33;;;;;;;;;;4999888;28;20177;-58
2021/07/16 05:58:40;;;;;;;23.27;17.77;;;;;;;;;;5002710;28;20605;-56
2021/07/16 06:01:05;;;;;;;25.40;19.10;;;;;;;;;;5007640;28;20184;-57
2021/07/16 06:03:30;;;;;;;25.92;20.15;;;;;;;;;;5000129;28;20567;-56
2021/07/16 06:05:55;;;;;;;30.23;21.60;;;;;;;;;;5005511;28;20183;-56
2021/07/16 06:08:20;;;;;;;31.90;21.05;;;;;;;;;;5007788;28;20489;-57
2021/07/16 06:10:46;;;;;;;28.60;21.05;;;;;;;;;;5004310;28;20235;-56
2021/07/16 06:13:11;;;;;;;31.35;21.63;;;;;;;;;;4983147;28;20200;-57
2021/07/16 06:15:36;;;;;;;31.83;21.17;;;;;;;;;;5008591;28;20281;-56
2021/07/16 06:18:02;;;;;;;31.23;19.95;;;;;;;;;;5006654;28;20179;-56
2021/07/16 06:20:27;;;;;;;28.55;20.02;;;;;;;;;;4989688;28;20246;-57
2021/07/16 06:22:52;;;;;;;26.88;18.60;;;;;;;;;;5006906;28;20671;-56
2021/07/16 06:25:18;;;;;;;28.63;19.33;;;;;;;;;;5006862;28;20221;-56
2021/07/16 06:27:43;;;;;;;30.65;18.73;;;;;;;;;;5002025;28;20643;-56
2021/07/16 06:30:10;;;;;;;31.67;21.50;;;;;;;;;;4993134;28;20194;-57
2021/07/16 06:32:35;;;;;;;31.33;20.90;;;;;;;;;;5008028;28;20683;-56
2021/07/16 06:35:00;;;;;;;34.45;21.85;;;;;;;;;;5007098;28;20179;-56
2021/07/16 06:37:26;;;;;;;30.48;20.88;;;;;;;;;;5002271;28;20875;-56
2021/07/16 06:39:51;;;;;;;32.90;20.30;;;;;;;;;;5003818;28;20277;-57
2021/07/16 06:42:16;;;;;;;33.50;22.43;;;;;;;;;;5000098;28;20473;-57
2021/07/16 06:44:41;;;;;;;32.43;19.87;;;;;;;;;;5011066;28;20930;-57
2021/07/16 06:47:06;;;;;;;34.80;21.10;;;;;;;;;;5000551;28;20497;-59
2021/07/16 06:49:32;;;;;;;36.55;22.10;;;;;;;;;;5012710;28;20199;-57
2021/07/16 06:51:57;;;;;;;37.15;22.05;;;;;;;;;;5012168;28;20614;-56
2021/07/16 06:54:24;;;;;;;39.60;20.85;;;;;;;;;;5012318;28;20191;-57
2021/07/16 06:56:49;;;;;;;37.17;22.42;;;;;;;;;;5006863;28;20266;-57
2021/07/16 06:59:14;;;;;;;33.70;21.55;;;;;;;;;;5004831;28;20274;-58
2021/07/16 07:01:40;;;;;;;37.60;21.80;;;;;;;;;;5005802;28;20591;-56
2021/07/16 07:04:05;;;;;;;45.78;24.05;;;;;;;;;;4997797;28;20537;-57
2021/07/16 07:06:30;;;;;;;36.90;21.95;;;;;;;;;;5012095;28;20516;-57
2021/07/16 07:08:55;;;;;;;39.38;23.42;;;;;;;;;;5007066;28;20210;-55
2021/07/16 07:11:21;;;;;;;37.33;22.03;;;;;;;;;;5010084;28;20198;-57
2021/07/16 07:13:46;;;;;;;33.47;20.30;;;;;;;;;;5006158;28;20936;-56
2021/07/16 07:16:15;;;;;;;31.90;19.00;;;;;;;;;;5006428;28;20222;-55
2021/07/16 07:18:40;;;;;;;37.65;19.05;;;;;;;;;;5005230;28;20180;-57
2021/07/16 07:21:05;;;;;;;30.83;20.23;;;;;;;;;;4990720;28;20184;-57
2021/07/16 07:23:31;;;;;;;35.17;21.42;;;;;;;;;;5010564;28;20249;-56
2021/07/16 07:25:56;;;;;;;40.10;22.98;;;;;;;;;;5008514;28;20188;-56
2021/07/16 07:28:21;;;;;;;44.33;24.15;;;;;;;;;;5009368;28;20218;-56
2021/07/16 07:30:46;;;;;;;35.47;22.70;;;;;;;;;;5002418;28;20635;-57
2021/07/16 07:33:11;;;;;;;42.95;24.40;;;;;;;;;;5009894;28;20215;-57
2021/07/16 07:35:36;;;;;;;41.63;24.15;;;;;;;;;;5011305;28;20267;-56
2021/07/16 07:38:05;;;;;;;40.40;23.95;;;;;;;;;;5010830;28;20587;-56
2021/07/16 07:40:30;;;;;;;40.47;25.23;;;;;;;;;;5002686;28;21154;-56
2021/07/16 07:42:58;;;;;;;41.30;23.48;;;;;;;;;;5011895;28;20198;-56
2021/07/16 07:45:23;;;;;;;35.70;23.27;;;;;;;;;;4994172;28;20241;-57
2021/07/16 07:47:48;;;;;;;39.75;26.08;;;;;;;;;;4988492;28;20211;-55
2021/07/16 07:50:16;;;;;;;35.45;22.65;;;;;;;;;;5006576;28;20191;-56
2021/07/16 07:52:41;;;;;;;36.33;22.08;;;;;;;;;;5009989;28;21103;-56
2021/07/16 07:55:07;;;;;;;36.95;23.23;;;;;;;;;;5010844;28;20176;-57
2021/07/16 07:57:32;;;;;;;34.17;23.23;;;;;;;;;;4992452;28;20182;-57
2021/07/16 07:59:57;;;;;;;36.42;24.58;;;;;;;;;;5011552;28;20168;-57
2021/07/16 08:02:23;;;;;;;35.03;23.25;;;;;;;;;;5010272;28;20195;-57
2021/07/16 08:04:48;;;;;;;34.85;23.38;;;;;;;;;;5011178;28;20199;-57
2021/07/16 08:07:13;;;;;;;34.47;22.60;;;;;;;;;;4993706;28;20203;-57
2021/07/16 08:09:38;;;;;;;32.73;20.57;;;;;;;;;;5010655;28;20675;-57
2021/07/16 08:12:04;;;;;;;32.05;21.50;;;;;;;;;;5009923;28;20446;-57
2021/07/16 08:14:29;;;;;;;31.92;20.52;;;;;;;;;;5011073;28;20174;-57
2021/07/16 08:16:54;;;;;;;30.75;19.98;;;;;;;;;;5011582;28;20171;-57
2021/07/16 08:19:19;;;;;;;31.75;20.65;;;;;;;;;;5010257;28;20183;-57
2021/07/16 08:21:46;;;;;;;37.15;24.13;;;;;;;;;;5010351;28;20202;-57
2021/07/16 08:24:12;;;;;;;39.35;21.80;;;;;;;;;;4987396;28;20664;-57
2021/07/16 08:26:37;;;;;;;41.35;22.52;;;;;;;;;;5008482;28;20195;-57
2021/07/16 08:29:02;;;;;;;34.60;22.20;;;;;;;;;;4994211;28;20196;-56
2021/07/16 08:31:27;;;;;;;37.60;23.02;;;;;;;;;;5010880;28;20420;-57
2021/07/16 08:33:52;;;;;;;37.13;21.45;;;;;;;;;;5010587;28;20180;-57
2021/07/16 08:36:18;;;;;;;34.47;22.25;;;;;;;;;;5010127;28;20188;-57
2021/07/16 08:38:45;;;;;;;39.80;21.65;;;;;;;;;;5007459;28;20186;-57
2021/07/16 08:41:10;;;;;;;32.20;22.05;;;;;;;;;;5006998;28;20643;-57
2021/07/16 08:43:36;;;;;;;31.38;21.05;;;;;;;;;;5008591;28;20213;-56
2021/07/16 08:46:01;;;;;;;37.33;22.17;;;;;;;;;;5010199;28;20183;-57
2021/07/16 08:48:26;;;;;;;33.38;21.95;;;;;;;;;;5008466;28;20314;-57
2021/07/16 08:50:52;;;;;;;34.38;23.60;;;;;;;;;;4993071;28;20659;-56
2021/07/16 08:53:18;;;;;;;37.65;23.00;;;;;;;;;;5009936;28;20278;-56
2021/07/16 08:55:43;;;;;;;36.78;22.58;;;;;;;;;;4991772;28;20259;-57
2021/07/16 08:58:10;;;;;;;39.55;23.40;;;;;;;;;;5009427;28;20219;-57
2021/07/16 09:00:36;;;;;;;39.03;21.92;;;;;;;;;;5010493;28;20173;-57
2021/07/16 09:03:01;;;;;;;37.25;20.42;;;;;;;;;;5010263;28;20210;-57
2021/07/16 09:05:45;;;;;;;35.92;19.65;;;;;;;;;;5010384;28;20168;-57
2021/07/16 09:08:20;;;;;;;34.15;20.55;;;;;;;;;;5008491;28;20220;-57
2021/07/16 09:10:45;;;;;;;41.78;21.17;;;;;;;;;;4995518;28;20167;-57
2021/07/16 09:13:11;;;;;;;34.05;19.17;;;;;;;;;;4990401;28;20721;-58
2021/07/16 09:15:36;;;;;;;29.83;20.77;;;;;;;;;;5009973;28;20630;-57
2021/07/16 09:18:30;;;;;;;36.50;22.25;;;;;;;;;;5009862;28;20662;-57
2021/07/16 09:21:02;;;;;;;30.83;20.77;;;;;;;;;;4978393;28;20179;-56
2021/07/16 09:23:35;;;;;;;38.95;20.30;;;;;;;;;;5005463;28;20203;-57
2021/07/16 09:26:02;;;;;;;39.83;22.08;;;;;;;;;;5006042;28;20191;-59
2021/07/16 09:28:27;;;;;;;33.10;20.30;;;;;;;;;;5005869;28;20730;-58
2021/07/16 09:30:55;;;;;;;36.13;21.13;;;;;;;;;;5003659;28;20175;-58
2021/07/16 09:33:20;;;;;;;33.95;19.75;;;;;;;;;;5008742;28;20294;-57
2021/07/16 09:35:45;;;;;;;34.77;21.03;;;;;;;;;;5008652;28;20306;-60
2021/07/16 09:38:14;;;;;;;37.63;19.42;;;;;;;;;;5007088;28;20422;-58
2021/07/16 09:40:41;;;;;;;30.52;19.25;;;;;;;;;;5008513;28;20190;-58
2021/07/16 09:43:11;;;;;;;30.55;19.48;;;;;;;;;;4990321;28;20199;-60
2021/07/16 09:45:55;;;;;;;31.63;19.27;;;;;;;;;;5009506;28;20175;-57
2021/07/16 09:48:24;;;;;;;29.70;19.25;;;;;;;;;;5009303;28;20249;-57
2021/07/16 09:50:50;;;;;;;31.10;19.08;;;;;;;;;;4989469;28;20190;-57
2021/07/16 09:53:17;;;;;;;28.75;17.63;;;;;;;;;;5007267;28;20568;-58
2021/07/16 09:55:42;;;;;;;31.85;18.58;;;;;;;;;;5009973;28;20194;-59
2021/07/16 09:58:22;;;;;;;36.05;17.80;;;;;;;;;;5007984;28;20171;-58
2021/07/16 10:00:49;;;;;;;37.65;17.23;;;;;;;;;;4989272;28;20171;-58
2021/07/16 10:03:14;;;;;;;32.47;18.02;;;;;;;;;;5009591;28;20240;-58
2021/07/16 10:05:41;;;;;;;32.83;17.10;;;;;;;;;;5009741;28;20706;-59
2021/07/16 10:08:08;;;;;;;32.35;16.95;;;;;;;;;;5008743;28;20207;-59
2021/07/16 10:10:34;;;;;;;33.85;16.30;;;;;;;;;;5009287;28;20542;-57
2021/07/16 10:12:59;;;;;;;33.22;16.75;;;;;;;;;;5006730;28;20414;-58
2021/07/16 10:15:24;;;;;;;32.13;16.52;;;;;;;;;;5011114;28;20222;-58
2021/07/16 10:17:50;;;;;;;38.70;16.65;;;;;;;;;;5013266;28;20702;-57
2021/07/16 10:20:16;;;;;;;30.23;15.13;;;;;;;;;;5012379;28;20176;-57
2021/07/16 10:22:42;;;;;;;31.08;16.45;;;;;;;;;;5013708;28;20183;-56
2021/07/16 10:25:08;;;;;;;31.67;15.48;;;;;;;;;;5012905;28;20245;-57
2021/07/16 10:27:34;;;;;;;33.28;16.02;;;;;;;;;;5011610;28;20262;-58
2021/07/16 10:30:10;;;;;;;28.08;15.82;;;;;;;;;;5006364;28;20294;-58
2021/07/16 10:32:43;;;;;;;31.05;16.15;;;;;;;;;;4994443;28;20377;-57
2021/07/16 10:35:25;;;;;;;30.23;16.10;;;;;;;;;;5013198;28;20717;-58
2021/07/16 10:37:57;;;;;;;30.48;16.15;;;;;;;;;;5013461;28;20167;-58
2021/07/16 10:40:43;;;;;;;31.48;15.02;;;;;;;;;;5012376;28;20556;-57
2021/07/16 10:43:28;;;;;;;26.42;15.60;;;;;;;;;;5011292;28;20748;-58
2021/07/16 10:45:58;;;;;;;29.05;16.45;;;;;;;;;;5013190;28;20183;-58
2021/07/16 10:48:29;;;;;;;29.20;14.50;;;;;;;;;;5012521;28;20203;-59
2021/07/16 10:50:55;;;;;;;29.58;15.35;;;;;;;;;;5013415;28;20168;-57
2021/07/16 10:53:29;;;;;;;26.10;13.85;;;;;;;;;;5012939;28;20561;-57
2021/07/16 10:55:54;;;;;;;26.85;15.32;;;;;;;;;;5011564;28;20314;-57
2021/07/16 10:58:20;;;;;;;30.02;15.75;;;;;;;;;;4993557;28;20270;-59
2021/07/16 11:00:46;;;;;;;29.08;16.02;;;;;;;;;;5012949;28;20422;-57
2021/07/16 11:03:13;;;;;;;26.92;16.70;;;;;;;;;;5012767;28;20195;-59
2021/07/16 11:05:38;;;;;;;29.27;16.52;;;;;;;;;;5012713;28;20212;-59
2021/07/16 11:08:04;;;;;;;26.38;15.57;;;;;;;;;;5012622;28;20285;-58
2021/07/16 11:10:44;;;;;;;35.53;16.05;;;;;;;;;;5012102;28;20180;-57
2021/07/16 11:13:28;;;;;;;30.17;16.42;;;;;;;;;;4992424;28;20913;-58
2021/07/16 11:15:53;;;;;;;29.25;17.20;;;;;;;;;;5012452;28;20214;-57
2021/07/16 11:18:28;;;;;;;34.80;17.45;;;;;;;;;;5012590;28;20250;-58
2021/07/16 11:20:54;;;;;;;27.75;16.65;;;;;;;;;;5011513;28;20187;-57
2021/07/16 11:23:20;;;;;;;33.78;20.75;;;;;;;;;;5012528;28;20195;-57
2021/07/16 11:25:46;;;;;;;35.38;19.63;;;;;;;;;;5012102;28;20212;-57
2021/07/16 11:28:11;;;;;;;32.78;20.38;;;;;;;;;;5010677;28;20246;-57
2021/07/16 11:30:36;;;;;;;33.17;19.58;;;;;;;;;;5011606;28;20705;-58
2021/07/16 11:33:06;;;;;;;32.25;17.55;;;;;;;;;;5012229;28;20207;-57
2021/07/16 11:35:31;;;;;;;34.60;17.33;;;;;;;;;;5012085;28;20174;-58
2021/07/16 11:37:57;;;;;;;31.55;19.02;;;;;;;;;;5011332;28;20172;-60
2021/07/16 11:40:23;;;;;;;41.10;20.75;;;;;;;;;;5011574;28;20194;-58
2021/07/16 11:42:50;;;;;;;30.20;17.85;;;;;;;;;;5010676;28;20286;-58
2021/07/16 11:45:22;;;;;;;36.03;17.35;;;;;;;;;;5010938;28;20164;-59
2021/07/16 11:47:48;;;;;;;31.10;17.73;;;;;;;;;;5011293;28;20542;-58
2021/07/16 11:50:14;;;;;;;28.23;16.92;;;;;;;;;;5011939;28;20164;-58
2021/07/16 11:52:41;;;;;;;32.38;16.85;;;;;;;;;;5011584;28;20604;-58
2021/07/16 11:55:06;;;;;;;36.83;18.00;;;;;;;;;;5009062;28;20191;-57
2021/07/16 11:57:32;;;;;;;36.10;17.08;;;;;;;;;;5010001;28;20168;-59
2021/07/16 11:59:57;;;;;;;34.67;17.52;;;;;;;;;;5011485;28;20172;-57
2021/07/16 12:02:23;;;;;;;31.52;17.80;;;;;;;;;;5011876;28;20202;-58
2021/07/16 12:04:49;;;;;;;34.10;18.42;;;;;;;;;;5011671;28;20179;-59
2021/07/16 12:07:15;;;;;;;30.60;17.10;;;;;;;;;;5011538;28;20176;-57
2021/07/16 12:09:44;;;;;;;26.92;15.02;;;;;;;;;;5013785;28;20219;-57
2021/07/16 12:12:11;;;;;;;29.27;15.25;;;;;;;;;;5010340;28;20242;-57
2021/07/16 12:14:47;;;;;;;24.83;15.75;;;;;;;;;;5009903;28;20179;-59
2021/07/16 12:17:12;;;;;;;29.17;15.98;;;;;;;;;;5011216;28;20175;-58
2021/07/16 12:19:38;;;;;;;28.08;15.07;;;;;;;;;;5011471;28;20206;-58
2021/07/16 12:22:03;;;;;;;26.23;14.77;;;;;;;;;;5011649;28;20192;-58
2021/07/16 12:24:28;;;;;;;27.35;13.93;;;;;;;;;;5010780;28;20217;-59
2021/07/16 12:27:04;;;;;;;23.92;14.10;;;;;;;;;;5010849;28;20579;-57
2021/07/16 12:29:29;;;;;;;27.30;15.52;;;;;;;;;;5005475;28;20202;-57
2021/07/16 12:31:54;;;;;;;23.17;15.00;;;;;;;;;;5011000;28;20237;-57
2021/07/16 12:34:21;;;;;;;27.97;13.00;;;;;;;;;;5011128;28;20171;-58
2021/07/16 12:36:49;;;;;;;24.98;14.18;;;;;;;;;;5011057;28;20410;-57
2021/07/16 12:39:21;;;;;;;23.23;12.77;;;;;;;;;;5010762;28;20171;-59
2021/07/16 12:41:47;;;;;;;24.67;13.85;;;;;;;;;;5009713;28;20214;-58
2021/07/16 12:44:13;;;;;;;27.23;13.90;;;;;;;;;;5009465;28;20188;-57
2021/07/16 12:46:38;;;;;;;26.20;14.93;;;;;;;;;;5008687;28;20180;-57
2021/07/16 12:49:07;;;;;;;25.60;13.50;;;;;;;;;;5010298;28;20242;-59
2021/07/16 12:51:39;;;;;;;30.05;13.68;;;;;;;;;;5011187;28;20539;-58
2021/07/16 12:54:04;;;;;;;23.98;12.88;;;;;;;;;;5010286;28;20168;-59
2021/07/16 12:56:36;;;;;;;20.33;12.25;;;;;;;;;;5009668;28;20192;-60
2021/07/16 12:59:19;;;;;;;22.10;12.25;;;;;;;;;;5005324;28;20183;-58
2021/07/16 13:01:48;;;;;;;22.25;12.25;;;;;;;;;;5009761;28;20310;-58
2021/07/16 13:04:14;;;;;;;28.42;12.02;;;;;;;;;;5010622;28;20202;-59
2021/07/16 13:06:39;;;;;;;21.08;12.30;;;;;;;;;;5009917;28;20254;-58
2021/07/16 13:09:20;;;;;;;22.95;12.35;;;;;;;;;;5014866;28;20199;-57
2021/07/16 13:11:58;;;;;;;19.27;12.32;;;;;;;;;;5009607;28;20195;-57
2021/07/16 13:14:24;;;;;;;17.75;11.30;;;;;;;;;;5007745;28;20171;-58
2021/07/16 13:16:50;;;;;;;24.30;11.10;;;;;;;;;;5010427;28;20176;-57
2021/07/16 13:19:15;;;;;;;21.20;11.43;;;;;;;;;;4992146;28;20206;-59
2021/07/16 13:21:40;;;;;;;21.00;11.00;;;;;;;;;;5018586;28;20682;-59
2021/07/16 13:24:06;;;;;;;22.15;11.20;;;;;;;;;;5024416;28;20414;-58
2021/07/16 13:26:32;;;;;;;22.02;10.98;;;;;;;;;;5008986;28;20489;-59
2021/07/16 13:28:59;;;;;;;21.70;12.13;;;;;;;;;;5007947;28;20234;-59
2021/07/16 13:31:25;;;;;;;21.13;11.90;;;;;;;;;;5008180;28;20842;-57
2021/07/16 13:33:50;;;;;;;19.08;10.95;;;;;;;;;;5010196;28;20262;-57
2021/07/16 13:36:15;;;;;;;25.85;10.88;;;;;;;;;;5010275;28;20664;-61
2021/07/16 13:38:40;;;;;;;18.08;10.55;;;;;;;;;;5009630;28;20207;-59
2021/07/16 13:41:06;;;;;;;19.40;12.33;;;;;;;;;;5009807;28;20668;-59
2021/07/16 13:43:32;;;;;;;23.02;13.55;;;;;;;;;;5006893;28;20456;-59
2021/07/16 13:45:57;;;;;;;22.67;11.80;;;;;;;;;;5008226;28;20191;-60
2021/07/16 13:48:22;;;;;;;19.98;11.50;;;;;;;;;;5009717;28;20638;-58
2021/07/16 13:50:48;;;;;;;19.23;11.32;;;;;;;;;;4995425;28;20172;-58
2021/07/16 13:53:13;;;;;;;21.95;10.48;;;;;;;;;;5012548;28;20274;-56
2021/07/16 13:55:38;;;;;;;18.13;10.50;;;;;;;;;;5008833;28;20179;-61
2021/07/16 13:58:03;;;;;;;16.50;10.70;;;;;;;;;;5011683;28;20164;-58
2021/07/16 14:00:29;;;;;;;22.83;12.20;;;;;;;;;;5007863;28;20184;-58
2021/07/16 14:02:54;;;;;;;22.48;11.15;;;;;;;;;;5011741;28;20203;-58
2021/07/16 14:05:20;;;;;;;18.98;12.48;;;;;;;;;;5011441;28;20585;-58
2021/07/16 14:07:46;;;;;;;17.15;11.73;;;;;;;;;;5013724;28;20190;-58
2021/07/16 14:10:12;;;;;;;20.85;11.35;;;;;;;;;;5011680;28;20183;-58
2021/07/16 14:12:37;;;;;;;21.23;12.75;;;;;;;;;;5013336;28;20604;-59
2021/07/16 14:15:03;;;;;;;26.05;17.20;;;;;;;;;;5012426;28;20203;-59